sensor_id;sensor_type;location;lat;lon;timestamp;pressure;altitude;pressure_sealevel;temperature;humidity
53689;BME280;39583;54.682;30.662;2023-02-11T12:35:41;98679.47;;;1.58;96.47
53689;BME280;39583;54.682;30.662;2023-02-11T12:40:42;98667.41;;;1.70;94.38
53689;BME280;39583;54.682;30.662;2023-02-11T12:51:19;98651.66;;;1.84;93.00
53689;BME280;39583;54.682;30.662;2023-02-11T12:54:18;98649.72;;;1.77;92.28
53689;BME280;39583;54.682;30.662;2023-02-11T12:56:48;98648.91;;;1.77;92.56
53689;BME280;39583;54.682;30.662;2023-02-11T12:59:43;98648.09;;;1.76;92.50
53689;BME280;39583;54.682;30.662;2023-02-11T13:02:25;98629.78;;;1.67;92.43
53689;BME280;39583;54.682;30.662;2023-02-11T13:04:56;98640.88;;;1.70;92.01
53689;BME280;39583;54.682;30.662;2023-02-11T13:07:39;98634.06;;;1.68;92.20
53689;BME280;39583;54.682;30.662;2023-02-11T13:12:44;98627.88;;;1.61;92.14
53689;BME280;39583;54.682;30.662;2023-02-11T13:15:29;98625.47;;;1.51;92.29
53689;BME280;39583;54.682;30.662;2023-02-11T13:23:36;98606.09;;;1.51;92.00
53689;BME280;39583;54.682;30.662;2023-02-11T13:26:22;98621.19;;;1.50;92.42
53689;BME280;39583;54.682;30.662;2023-02-11T13:31:56;98598.31;;;1.49;92.17
53689;BME280;39583;54.682;30.662;2023-02-11T13:37:34;98601.69;;;1.43;92.49
53689;BME280;39583;54.682;30.662;2023-02-11T13:42:31;98580.38;;;1.36;92.29
53689;BME280;39583;54.682;30.662;2023-02-11T13:44:59;98568.59;;;1.24;92.44
53689;BME280;39583;54.682;30.662;2023-02-11T13:47:32;98581.94;;;1.31;92.21
53689;BME280;39583;54.682;30.662;2023-02-11T13:49:59;98575.53;;;1.25;92.54
53689;BME280;39583;54.682;30.662;2023-02-11T13:52:36;98569.59;;;1.23;92.52
53689;BME280;39583;54.682;30.662;2023-02-11T13:57:40;98559.34;;;1.20;92.98
53689;BME280;39583;54.682;30.662;2023-02-11T14:29:41;98534.28;;;1.08;94.01
53689;BME280;39583;54.682;30.662;2023-02-11T14:37:38;98520.75;;;1.03;94.38
53689;BME280;39583;54.682;30.662;2023-02-11T14:42:41;98507.84;;;1.00;94.52
53689;BME280;39583;54.682;30.662;2023-02-11T14:45:10;98536.00;;;1.01;94.39
53689;BME280;39583;54.682;30.662;2023-02-11T14:47:40;98513.34;;;0.98;94.82
53689;BME280;39583;54.682;30.662;2023-02-11T14:50:19;98510.31;;;1.01;94.80
53689;BME280;39583;54.682;30.662;2023-02-11T14:52:48;98501.19;;;1.04;94.91
53689;BME280;39583;54.682;30.662;2023-02-11T14:55:29;98509.50;;;1.01;95.24
53689;BME280;39583;54.682;30.662;2023-02-11T14:58:25;98506.31;;;1.05;95.41
53689;BME280;39583;54.682;30.662;2023-02-11T15:01:02;98511.78;;;1.04;95.33
53689;BME280;39583;54.682;30.662;2023-02-11T15:03:36;98507.34;;;1.04;95.44
53689;BME280;39583;54.682;30.662;2023-02-11T15:06:06;98488.78;;;1.04;95.33
53689;BME280;39583;54.682;30.662;2023-02-11T15:08:36;98484.56;;;0.95;95.31
53689;BME280;39583;54.682;30.662;2023-02-11T15:11:08;98488.28;;;1.01;95.59
53689;BME280;39583;54.682;30.662;2023-02-11T15:13:37;98492.59;;;1.02;95.84
53689;BME280;39583;54.682;30.662;2023-02-11T15:16:06;98490.13;;;1.00;95.70
53689;BME280;39583;54.682;30.662;2023-02-11T15:18:39;98489.69;;;0.97;95.66
53689;BME280;39583;54.682;30.662;2023-02-11T15:21:06;98488.22;;;0.94;95.57
53689;BME280;39583;54.682;30.662;2023-02-11T15:23:33;98480.44;;;0.93;95.52
53689;BME280;39583;54.682;30.662;2023-02-11T15:26:00;98490.22;;;0.92;95.91
53689;BME280;39583;54.682;30.662;2023-02-11T15:28:33;98490.22;;;0.92;95.88
53689;BME280;39583;54.682;30.662;2023-02-11T15:31:03;98480.28;;;0.94;95.93
53689;BME280;39583;54.682;30.662;2023-02-11T15:33:32;98476.78;;;0.94;96.13
53689;BME280;39583;54.682;30.662;2023-02-11T15:35:59;98493.53;;;0.94;96.30
53689;BME280;39583;54.682;30.662;2023-02-11T15:38:27;98487.03;;;0.97;96.09
53689;BME280;39583;54.682;30.662;2023-02-11T15:41:00;98468.38;;;0.90;96.43
53689;BME280;39583;54.682;30.662;2023-02-11T15:43:48;98488.59;;;1.06;96.69
53689;BME280;39583;54.682;30.662;2023-02-11T15:46:20;98484.75;;;1.08;96.51
53689;BME280;39583;54.682;30.662;2023-02-11T15:48:50;98484.75;;;1.08;96.72
53689;BME280;39583;54.682;30.662;2023-02-11T15:51:23;98476.16;;;1.06;96.72
53689;BME280;39583;54.682;30.662;2023-02-11T15:53:55;98487.75;;;1.05;96.65
53689;BME280;39583;54.682;30.662;2023-02-11T15:56:50;98470.66;;;1.08;96.68
53689;BME280;39583;54.682;30.662;2023-02-11T15:59:39;98486.38;;;1.09;96.65
53689;BME280;39583;54.682;30.662;2023-02-11T16:04:52;98479.25;;;1.10;96.95
53689;BME280;39583;54.682;30.662;2023-02-11T16:12:50;98490.13;;;1.15;97.79
53689;BME280;39583;54.682;30.662;2023-02-11T16:18:01;98473.38;;;1.14;97.55
53689;BME280;39583;54.682;30.662;2023-02-11T16:20:29;98486.66;;;1.14;97.93
53689;BME280;39583;54.682;30.662;2023-02-11T16:22:56;98491.94;;;1.14;98.02
53689;BME280;39583;54.682;30.662;2023-02-11T16:25:23;98491.13;;;1.14;98.12
53689;BME280;39583;54.682;30.662;2023-02-11T16:27:52;98470.22;;;1.19;98.00
53689;BME280;39583;54.682;30.662;2023-02-11T16:30:34;98463.97;;;1.12;98.17
53689;BME280;39583;54.682;30.662;2023-02-11T16:33:05;98489.94;;;1.16;97.98
53689;BME280;39583;54.682;30.662;2023-02-11T16:35:31;98493.97;;;1.12;97.95
53689;BME280;39583;54.682;30.662;2023-02-11T16:37:57;98489.84;;;1.10;97.55
53689;BME280;39583;54.682;30.662;2023-02-11T16:40:23;98469.22;;;1.05;97.55
53689;BME280;39583;54.682;30.662;2023-02-11T16:42:50;98491.44;;;1.04;97.61
53689;BME280;39583;54.682;30.662;2023-02-11T16:45:18;98491.25;;;1.06;98.03
53689;BME280;39583;54.682;30.662;2023-02-11T16:47:44;98490.56;;;1.04;98.01
53689;BME280;39583;54.682;30.662;2023-02-11T16:50:19;98495.44;;;1.00;98.14
53689;BME280;39583;54.682;30.662;2023-02-11T16:52:47;98498.44;;;0.97;97.99
53689;BME280;39583;54.682;30.662;2023-02-11T16:55:13;98496.63;;;0.98;98.02
53689;BME280;39583;54.682;30.662;2023-02-11T16:57:39;98508.50;;;1.02;98.30
53689;BME280;39583;54.682;30.662;2023-02-11T17:00:06;98499.72;;;1.01;98.15
53689;BME280;39583;54.682;30.662;2023-02-11T17:02:34;98508.50;;;1.02;98.12
53689;BME280;39583;54.682;30.662;2023-02-11T17:05:03;98505.03;;;1.01;98.50
53689;BME280;39583;54.682;30.662;2023-02-11T17:07:30;98508.50;;;1.02;98.61
53689;BME280;39583;54.682;30.662;2023-02-11T17:09:56;98516.81;;;0.99;98.44
53689;BME280;39583;54.682;30.662;2023-02-11T17:12:22;98523.75;;;1.00;98.58
53689;BME280;39583;54.682;30.662;2023-02-11T17:14:52;98518.28;;;1.01;98.99
53689;BME280;39583;54.682;30.662;2023-02-11T17:17:18;98525.03;;;1.04;98.68
53689;BME280;39583;54.682;30.662;2023-02-11T17:19:46;98527.06;;;1.02;98.52
53689;BME280;39583;54.682;30.662;2023-02-11T17:22:13;98542.13;;;1.01;98.74
53689;BME280;39583;54.682;30.662;2023-02-11T17:24:39;98545.59;;;1.02;98.91
53689;BME280;39583;54.682;30.662;2023-02-11T17:27:05;98552.41;;;1.04;98.71
53689;BME280;39583;54.682;30.662;2023-02-11T17:29:31;98557.31;;;1.07;99.14
53689;BME280;39583;54.682;30.662;2023-02-11T17:31:59;98560.44;;;1.11;98.83
53689;BME280;39583;54.682;30.662;2023-02-11T17:34:27;98573.50;;;1.12;99.09
53689;BME280;39583;54.682;30.662;2023-02-11T17:36:54;98575.97;;;1.14;98.99
53689;BME280;39583;54.682;30.662;2023-02-11T17:39:32;98584.56;;;1.16;99.33
53689;BME280;39583;54.682;30.662;2023-02-11T17:41:58;98579.94;;;1.18;99.03
53689;BME280;39583;54.682;30.662;2023-02-11T17:44:24;98580.38;;;1.22;99.06
53689;BME280;39583;54.682;30.662;2023-02-11T17:46:52;98591.63;;;1.24;99.37
53689;BME280;39583;54.682;30.662;2023-02-11T17:49:25;98592.72;;;1.29;99.04
53689;BME280;39583;54.682;30.662;2023-02-11T17:51:52;98593.53;;;1.30;98.71
53689;BME280;39583;54.682;30.662;2023-02-11T17:54:18;98604.16;;;1.30;98.86
53689;BME280;39583;54.682;30.662;2023-02-11T17:56:46;98608.63;;;1.29;99.10
53689;BME280;39583;54.682;30.662;2023-02-11T17:59:16;98620.91;;;1.30;99.29
53689;BME280;39583;54.682;30.662;2023-02-11T18:01:43;98622.19;;;1.34;99.21
53689;BME280;39583;54.682;30.662;2023-02-11T18:04:16;98619.53;;;1.34;98.83
53689;BME280;39583;54.682;30.662;2023-02-11T18:06:45;98630.97;;;1.35;99.21
53689;BME280;39583;54.682;30.662;2023-02-11T18:09:11;98641.94;;;1.32;98.81
53689;BME280;39583;54.682;30.662;2023-02-11T18:11:38;98645.28;;;1.26;98.32
53689;BME280;39583;54.682;30.662;2023-02-11T18:14:05;98658.94;;;1.23;98.49
53689;BME280;39583;54.682;30.662;2023-02-11T18:16:33;98664.59;;;1.20;98.06
53689;BME280;39583;54.682;30.662;2023-02-11T18:19:01;98675.38;;;1.18;98.02
53689;BME280;39583;54.682;30.662;2023-02-11T18:21:27;98676.34;;;1.17;98.30
53689;BME280;39583;54.682;30.662;2023-02-11T18:23:54;98662.81;;;1.12;97.88
53689;BME280;39583;54.682;30.662;2023-02-11T18:26:21;98657.25;;;1.07;98.24
53689;BME280;39583;54.682;30.662;2023-02-11T18:28:50;98705.88;;;1.14;98.05
53689;BME280;39583;54.682;30.662;2023-02-11T18:31:18;98687.31;;;1.14;98.22
53689;BME280;39583;54.682;30.662;2023-02-11T18:33:44;98725.81;;;1.10;97.99
53689;BME280;39583;54.682;30.662;2023-02-11T18:36:13;98721.88;;;1.06;98.13
53689;BME280;39583;54.682;30.662;2023-02-11T18:38:40;98727.81;;;1.08;97.60
53689;BME280;39583;54.682;30.662;2023-02-11T18:41:09;98722.56;;;1.00;97.48
53689;BME280;39583;54.682;30.662;2023-02-11T18:43:36;98738.38;;;0.93;97.50
53689;BME280;39583;54.682;30.662;2023-02-11T18:46:08;98732.75;;;0.88;97.40
53689;BME280;39583;54.682;30.662;2023-02-11T18:48:39;98749.66;;;0.87;97.91
53689;BME280;39583;54.682;30.662;2023-02-11T18:51:10;98758.25;;;0.89;97.64
53689;BME280;39583;54.682;30.662;2023-02-11T18:53:37;98744.16;;;0.88;97.70
53689;BME280;39583;54.682;30.662;2023-02-11T18:56:13;98764.03;;;0.93;97.73
53689;BME280;39583;54.682;30.662;2023-02-11T18:58:41;98753.84;;;0.81;97.43
53689;BME280;39583;54.682;30.662;2023-02-11T19:01:16;98803.94;;;0.91;97.34
53689;BME280;39583;54.682;30.662;2023-02-11T19:03:43;98818.09;;;0.83;96.57
53689;BME280;39583;54.682;30.662;2023-02-11T19:06:15;98843.31;;;0.71;95.95
53689;BME280;39583;54.682;30.662;2023-02-11T19:08:41;98839.91;;;0.54;96.08
53689;BME280;39583;54.682;30.662;2023-02-11T19:11:08;98842.88;;;0.51;96.62
53689;BME280;39583;54.682;30.662;2023-02-11T19:13:35;98881.66;;;0.52;96.86
53689;BME280;39583;54.682;30.662;2023-02-11T19:16:05;98863.75;;;0.46;96.42
53689;BME280;39583;54.682;30.662;2023-02-11T19:18:35;98877.84;;;0.39;96.48
53689;BME280;39583;54.682;30.662;2023-02-11T19:21:08;98904.19;;;0.32;96.12
53689;BME280;39583;54.682;30.662;2023-02-11T19:23:36;98909.66;;;0.22;94.96
53689;BME280;39583;54.682;30.662;2023-02-11T19:26:03;98898.56;;;0.11;95.13
53689;BME280;39583;54.682;30.662;2023-02-11T19:28:33;98919.28;;;0.07;95.04
53689;BME280;39583;54.682;30.662;2023-02-11T19:31:08;98913.13;;;-0.02;94.76
53689;BME280;39583;54.682;30.662;2023-02-11T19:33:35;98926.22;;;0.08;93.90
53689;BME280;39583;54.682;30.662;2023-02-11T19:36:05;98966.25;;;0.05;93.05
53689;BME280;39583;54.682;30.662;2023-02-11T19:38:32;98972.06;;;0.01;92.81
53689;BME280;39583;54.682;30.662;2023-02-11T19:40:59;98986.59;;;-0.04;92.80
53689;BME280;39583;54.682;30.662;2023-02-11T19:43:25;98974.34;;;-0.13;91.76
53689;BME280;39583;54.682;30.662;2023-02-11T19:45:52;98983.56;;;-0.33;91.03
53689;BME280;39583;54.682;30.662;2023-02-11T19:48:22;99015.16;;;-0.32;90.36
53689;BME280;39583;54.682;30.662;2023-02-11T19:50:49;99011.50;;;-0.39;90.13
53689;BME280;39583;54.682;30.662;2023-02-11T19:53:15;99064.19;;;-0.45;89.51
53689;BME280;39583;54.682;30.662;2023-02-11T19:55:41;99040.34;;;-0.53;88.75
53689;BME280;39583;54.682;30.662;2023-02-11T19:58:07;99068.28;;;-0.59;88.81
53689;BME280;39583;54.682;30.662;2023-02-11T20:00:33;99050.25;;;-0.64;88.70
53689;BME280;39583;54.682;30.662;2023-02-11T20:03:00;99059.78;;;-0.71;88.41
53689;BME280;39583;54.682;30.662;2023-02-11T20:05:26;99064.34;;;-0.81;88.60
53689;BME280;39583;54.682;30.662;2023-02-11T20:07:52;99071.94;;;-0.86;88.61
53689;BME280;39583;54.682;30.662;2023-02-11T20:10:18;99066.66;;;-0.86;88.67
53689;BME280;39583;54.682;30.662;2023-02-11T20:12:44;99077.38;;;-0.87;88.96
53689;BME280;39583;54.682;30.662;2023-02-11T20:15:10;99086.13;;;-0.87;89.14
53689;BME280;39583;54.682;30.662;2023-02-11T20:17:36;99082.44;;;-0.94;88.83
53689;BME280;39583;54.682;30.662;2023-02-11T20:20:02;99099.97;;;-0.93;88.94
53689;BME280;39583;54.682;30.662;2023-02-11T20:22:28;99102.75;;;-0.95;88.42
53689;BME280;39583;54.682;30.662;2023-02-11T20:24:54;99111.84;;;-0.97;88.37
53689;BME280;39583;54.682;30.662;2023-02-11T20:27:20;99126.34;;;-1.01;88.13
53689;BME280;39583;54.682;30.662;2023-02-11T20:29:47;99119.03;;;-1.07;87.32
53689;BME280;39583;54.682;30.662;2023-02-11T20:32:13;99139.88;;;-1.22;86.51
53689;BME280;39583;54.682;30.662;2023-02-11T20:34:39;99161.25;;;-1.33;86.29
53689;BME280;39583;54.682;30.662;2023-02-11T20:37:05;99157.00;;;-1.44;86.08
53689;BME280;39583;54.682;30.662;2023-02-11T20:39:34;99150.69;;;-1.51;85.37
53689;BME280;39583;54.682;30.662;2023-02-11T20:42:04;99176.00;;;-1.58;84.25
53689;BME280;39583;54.682;30.662;2023-02-11T20:44:31;99177.47;;;-1.64;83.80
53689;BME280;39583;54.682;30.662;2023-02-11T20:46:57;99195.69;;;-1.70;83.68
53689;BME280;39583;54.682;30.662;2023-02-11T20:49:23;99199.22;;;-1.80;83.63
53689;BME280;39583;54.682;30.662;2023-02-11T20:51:50;99214.28;;;-1.90;83.89
53689;BME280;39583;54.682;30.662;2023-02-11T20:54:21;99225.69;;;-1.99;84.25
53689;BME280;39583;54.682;30.662;2023-02-11T20:56:52;99223.38;;;-2.02;84.64
53689;BME280;39583;54.682;30.662;2023-02-11T20:59:20;99197.91;;;-2.21;84.27
53689;BME280;39583;54.682;30.662;2023-02-11T21:01:49;99234.50;;;-2.08;84.36
53689;BME280;39583;54.682;30.662;2023-02-11T21:04:19;99245.88;;;-2.08;84.42
53689;BME280;39583;54.682;30.662;2023-02-11T21:06:48;99247.13;;;-2.12;84.67
53689;BME280;39583;54.682;30.662;2023-02-11T21:09:16;99257.00;;;-2.14;84.38
53689;BME280;39583;54.682;30.662;2023-02-11T21:11:44;99258.81;;;-2.14;83.99
53689;BME280;39583;54.682;30.662;2023-02-11T21:14:11;99270.78;;;-2.20;84.26
53689;BME280;39583;54.682;30.662;2023-02-11T21:16:38;99277.03;;;-2.21;83.91
53689;BME280;39583;54.682;30.662;2023-02-11T21:19:04;99292.41;;;-2.16;83.94
53689;BME280;39583;54.682;30.662;2023-02-11T21:21:33;99277.59;;;-2.27;84.16
53689;BME280;39583;54.682;30.662;2023-02-11T21:23:59;99316.03;;;-2.24;84.05
53689;BME280;39583;54.682;30.662;2023-02-11T21:26:25;99316.44;;;-2.19;84.24
53689;BME280;39583;54.682;30.662;2023-02-11T21:28:51;99318.25;;;-2.20;84.26
53689;BME280;39583;54.682;30.662;2023-02-11T21:33:47;99327.94;;;-2.11;85.19
53689;BME280;39583;54.682;30.662;2023-02-11T21:36:13;99330.16;;;-2.06;85.24
53689;BME280;39583;54.682;30.662;2023-02-11T21:38:40;99341.78;;;-1.99;85.42
53689;BME280;39583;54.682;30.662;2023-02-11T21:41:06;99344.13;;;-1.96;85.22
53689;BME280;39583;54.682;30.662;2023-02-11T21:43:32;99342.63;;;-1.98;85.31
